createdAt,value
2022-09-15T00:01:39.362Z,97743.23
2022-09-15T00:04:08.916Z,97740.41
2022-09-15T00:06:37.406Z,97745.54
2022-09-15T00:09:05.904Z,97747.27
2022-09-15T00:11:37.140Z,97748.61
2022-09-15T00:14:07.959Z,97752.52
2022-09-15T00:16:36.305Z,97752.70
2022-09-15T00:19:06.649Z,97748.52
2022-09-15T00:21:37.695Z,97742.77
2022-09-15T00:24:06.549Z,97745.22
2022-09-15T00:26:36.497Z,97736.19
2022-09-15T00:29:06.054Z,97728.71
2022-09-15T00:31:34.759Z,97714.70
2022-09-15T00:34:04.370Z,97710.56
2022-09-15T00:36:33.003Z,97698.67
2022-09-15T00:39:01.481Z,97691.01
2022-09-15T00:41:30.387Z,97681.62
2022-09-15T00:44:26.172Z,97676.17
2022-09-15T00:47:15.618Z,97673.70
2022-09-15T00:49:50.018Z,97673.98
2022-09-15T00:52:25.689Z,97672.64
2022-09-15T00:55:13.156Z,97668.84
2022-09-15T00:57:44.279Z,97663.02
2022-09-15T01:00:16.746Z,97658.80
2022-09-15T01:02:47.486Z,97664.88
2022-09-15T01:05:19.159Z,97663.77
2022-09-15T01:07:51.618Z,97662.44
2022-09-15T01:10:32.142Z,97663.40
2022-09-15T01:13:04.041Z,97656.41
2022-09-15T01:16:11.190Z,97651.60
2022-09-15T01:19:01.018Z,97647.17
2022-09-15T01:21:32.174Z,97648.71
2022-09-15T01:24:32.553Z,97642.54
2022-09-15T01:27:42.900Z,97640.14
2022-09-15T01:30:25.365Z,97634.10
2022-09-15T01:33:05.693Z,97625.70
2022-09-15T01:35:56.990Z,97617.89
2022-09-15T01:38:54.345Z,97611.14
2022-09-15T01:41:26.273Z,97605.50
2022-09-15T01:44:12.645Z,97607.23
2022-09-15T01:46:47.958Z,97608.69
2022-09-15T01:49:21.899Z,97612.66
2022-09-15T01:51:53.459Z,97615.98
2022-09-15T01:54:29.008Z,97616.39
2022-09-15T01:56:57.996Z,97612.27
2022-09-15T01:59:26.248Z,97607.70
2022-09-15T02:02:02.436Z,97606.64
2022-09-15T02:05:01.739Z,97597.27
2022-09-15T02:08:05.729Z,97596.40
2022-09-15T02:10:47.339Z,97596.50
2022-09-15T02:13:35.447Z,97592.84
2022-09-15T02:16:06.952Z,97590.36
2022-09-15T02:18:48.865Z,97584.20
2022-09-15T02:21:29.992Z,97581.39
2022-09-15T02:24:04.614Z,97587.14
2022-09-15T02:26:35.942Z,97580.76
2022-09-15T02:29:09.259Z,97576.38
2022-09-15T02:31:40.004Z,97579.27
2022-09-15T02:34:16.291Z,97574.98
2022-09-15T02:36:45.953Z,97572.30
2022-09-15T02:39:19.742Z,97565.52
2022-09-15T02:41:49.349Z,97560.38
2022-09-15T02:44:17.519Z,97562.16
2022-09-15T02:46:45.709Z,97565.21
2022-09-15T02:49:14.465Z,97563.33
2022-09-15T02:51:42.850Z,97560.27
2022-09-15T02:54:12.145Z,97556.76
2022-09-15T02:56:41.162Z,97557.84
2022-09-15T02:59:09.558Z,97558.20
2022-09-15T03:01:39.457Z,97559.23
2022-09-15T03:04:07.778Z,97556.50
2022-09-15T03:06:36.199Z,97555.89
2022-09-15T03:09:07.798Z,97554.23
2022-09-15T03:11:36.774Z,97553.61
2022-09-15T03:14:07.166Z,97550.27
2022-09-15T03:16:36.058Z,97548.21
2022-09-15T03:19:05.985Z,97547.88
2022-09-15T03:21:36.003Z,97548.11
2022-09-15T03:24:04.662Z,97547.65
2022-09-15T03:26:32.964Z,97547.69
2022-09-15T03:29:01.184Z,97548.74
2022-09-15T03:31:29.578Z,97547.39
2022-09-15T03:33:58.395Z,97545.49
2022-09-15T03:36:26.714Z,97540.22
2022-09-15T03:38:58.335Z,97540.42
2022-09-15T03:41:28.041Z,97543.05
2022-09-15T03:43:56.933Z,97542.70
2022-09-15T03:46:25.149Z,97540.80
2022-09-15T03:48:53.418Z,97541.08
2022-09-15T03:51:22.254Z,97539.75
2022-09-15T03:53:50.521Z,97535.61
2022-09-15T03:56:28.091Z,97535.45
2022-09-15T03:58:56.470Z,97533.84
2022-09-15T04:01:25.958Z,97533.26
2022-09-15T04:03:54.278Z,97531.81
2022-09-15T04:06:23.835Z,97530.81
2022-09-15T04:08:53.305Z,97529.80
2022-09-15T04:11:22.833Z,97528.84
2022-09-15T04:13:53.410Z,97532.94
2022-09-15T04:16:24.191Z,97534.95
2022-09-15T04:18:55.538Z,97533.95
2022-09-15T04:21:26.878Z,97535.82
2022-09-15T04:23:55.198Z,97537.92
2022-09-15T04:26:35.840Z,97539.63
2022-09-15T04:29:11.194Z,97539.69
2022-09-15T04:31:39.885Z,97536.05
2022-09-15T04:34:08.634Z,97534.40
2022-09-15T04:36:37.149Z,97532.21
2022-09-15T04:39:06.927Z,97532.79
2022-09-15T04:41:35.309Z,97533.66
2022-09-15T04:44:04.437Z,97531.66
2022-09-15T04:46:32.733Z,97531.31
2022-09-15T04:49:01.088Z,97525.71
2022-09-15T04:51:29.431Z,97520.91
2022-09-15T04:53:58.696Z,97519.25
2022-09-15T04:56:28.034Z,97516.31
2022-09-15T04:59:03.636Z,97518.27
2022-09-15T05:01:35.913Z,97521.60
2022-09-15T05:04:04.776Z,97517.10
2022-09-15T05:06:35.704Z,97523.17
2022-09-15T05:09:10.210Z,97521.05
2022-09-15T05:11:39.446Z,97520.00
2022-09-15T05:14:09.820Z,97526.21
2022-09-15T05:16:40.170Z,97527.05
2022-09-15T05:19:10.425Z,97524.51
2022-09-15T05:21:38.766Z,97521.41
2022-09-15T05:24:07.411Z,97526.00
2022-09-15T05:26:35.733Z,97526.29
2022-09-15T05:29:03.976Z,97528.78
2022-09-15T05:31:36.270Z,97524.95
2022-09-15T05:34:05.856Z,97522.20
2022-09-15T05:36:34.497Z,97527.98
2022-09-15T05:39:02.894Z,97528.04
2022-09-15T05:41:31.401Z,97525.56
2022-09-15T05:43:59.854Z,97527.08
2022-09-15T05:46:29.609Z,97523.83
2022-09-15T05:48:58.934Z,97522.40
2022-09-15T05:51:27.977Z,97519.56
2022-09-15T05:53:56.360Z,97520.85
2022-09-15T05:56:24.764Z,97513.36
2022-09-15T05:58:53.100Z,97511.17
2022-09-15T06:01:24.574Z,97510.41
2022-09-15T06:03:53.929Z,97506.79
2022-09-15T06:06:23.835Z,97511.55
2022-09-15T06:08:58.658Z,97511.64
2022-09-15T06:11:31.220Z,97514.23
2022-09-15T06:14:04.225Z,97512.10
2022-09-15T06:16:35.061Z,97511.70
2022-09-15T06:19:04.200Z,97512.58
2022-09-15T06:21:34.068Z,97515.55
2022-09-15T06:24:07.500Z,97517.21
2022-09-15T06:26:36.108Z,97516.64
2022-09-15T06:29:05.773Z,97518.35
2022-09-15T06:31:36.307Z,97519.27
2022-09-15T06:34:05.496Z,97518.98
2022-09-15T06:36:34.123Z,97519.81
2022-09-15T06:39:03.137Z,97521.45
2022-09-15T06:41:52.449Z,97520.00
2022-09-15T06:44:20.608Z,97525.59
2022-09-15T06:46:49.528Z,97524.90
2022-09-15T06:49:18.523Z,97523.48
2022-09-15T06:51:46.790Z,97523.08
2022-09-15T06:54:16.421Z,97524.69
2022-09-15T06:56:46.243Z,97528.91
2022-09-15T06:59:16.378Z,97536.77
2022-09-15T07:01:56.223Z,97539.83
2022-09-15T07:04:27.859Z,97543.80
2022-09-15T07:10:11.997Z,97557.54
2022-09-15T07:12:40.403Z,97562.89
2022-09-15T07:15:09.635Z,97571.15
2022-09-15T07:17:37.899Z,97579.84
2022-09-15T07:20:06.779Z,97588.77
2022-09-15T07:22:35.088Z,97597.77
2022-09-15T07:25:03.435Z,97602.42
2022-09-15T07:27:32.208Z,97609.48
2022-09-15T07:30:00.553Z,97616.20
2022-09-15T07:32:28.835Z,97617.36
2022-09-15T07:34:58.510Z,97624.05
2022-09-15T07:37:27.063Z,97624.38
2022-09-15T07:39:55.378Z,97626.73
2022-09-15T07:42:23.743Z,97632.28
2022-09-15T07:44:52.301Z,97637.50
2022-09-15T07:47:21.075Z,97640.66
2022-09-15T07:49:50.804Z,97651.23
2022-09-15T07:52:19.082Z,97649.82
2022-09-15T07:54:47.359Z,97656.50
2022-09-15T07:57:15.623Z,97666.92
2022-09-15T07:59:43.847Z,97671.42
2022-09-15T08:02:17.704Z,97678.60
2022-09-15T08:04:46.691Z,97682.67
2022-09-15T08:07:15.049Z,97682.05
2022-09-15T08:09:43.771Z,97677.25
2022-09-15T08:12:12.526Z,97681.71
2022-09-15T08:14:40.850Z,97682.58
2022-09-15T08:17:11.496Z,97684.74
2022-09-15T08:19:40.242Z,97695.56
2022-09-15T08:22:08.511Z,97709.66
2022-09-15T08:24:37.696Z,97704.30
2022-09-15T08:27:06.044Z,97709.55
2022-09-15T08:29:34.375Z,97717.30
2022-09-15T08:32:03.119Z,97729.40
2022-09-15T08:34:31.908Z,97739.06
2022-09-15T08:37:00.158Z,97738.52
2022-09-15T08:39:28.995Z,97748.55
2022-09-15T08:42:01.642Z,97751.80
2022-09-15T08:44:51.700Z,97752.22
2022-09-15T08:47:38.796Z,97767.54
2022-09-15T08:50:43.857Z,97774.94
2022-09-15T08:53:22.038Z,97781.89
2022-09-15T08:55:54.639Z,97784.81
2022-09-15T08:58:34.843Z,97790.95
2022-09-15T09:01:37.429Z,97795.52
2022-09-15T09:04:05.723Z,97796.59
2022-09-15T09:06:55.810Z,97800.17
2022-09-15T09:09:45.363Z,97803.94
2022-09-15T09:12:41.334Z,97807.38
2022-09-15T09:15:37.742Z,97804.85
2022-09-15T09:18:21.353Z,97812.95
2022-09-15T09:20:49.942Z,97825.05
2022-09-15T09:23:24.328Z,97828.07
2022-09-15T09:26:12.026Z,97828.47
2022-09-15T09:28:47.830Z,97831.68
2022-09-15T09:31:21.774Z,97829.18
2022-09-15T09:33:52.737Z,97829.11
2022-09-15T09:36:21.581Z,97833.15
2022-09-15T09:38:51.007Z,97833.89
2022-09-15T09:41:27.058Z,97834.98
2022-09-15T09:43:56.584Z,97836.50
2022-09-15T09:46:24.930Z,97839.98
2022-09-15T09:49:05.080Z,97839.77
2022-09-15T09:51:39.953Z,97844.81
2022-09-15T09:54:18.242Z,97854.56
2022-09-15T09:56:51.252Z,97859.13
2022-09-15T09:59:31.642Z,97862.64
2022-09-15T10:02:13.462Z,97870.21
2022-09-15T10:05:12.323Z,97877.52
2022-09-15T10:07:45.856Z,97876.00
2022-09-15T10:10:32.510Z,97873.76
2022-09-15T10:13:03.419Z,97870.86
2022-09-15T10:15:35.370Z,97871.39
2022-09-15T10:18:04.363Z,97871.76
2022-09-15T10:20:48.240Z,97874.66
2022-09-15T10:23:22.531Z,97877.77
2022-09-15T10:25:59.691Z,97881.20
2022-09-15T10:28:29.292Z,97878.53
2022-09-15T10:31:07.809Z,97881.48
2022-09-15T10:33:40.612Z,97889.75
2022-09-15T10:36:19.864Z,97895.16
2022-09-15T10:38:55.002Z,97892.92
2022-09-15T10:41:35.250Z,97891.10
2022-09-15T10:44:15.622Z,97893.92
2022-09-15T10:46:44.579Z,97893.77
2022-09-15T10:49:41.958Z,97889.27
2022-09-15T10:52:29.283Z,97884.44
2022-09-15T10:55:06.728Z,97893.90
2022-09-15T10:57:44.188Z,97892.55
2022-09-15T11:00:26.036Z,97886.95
2022-09-15T11:03:06.037Z,97877.98
2022-09-15T11:06:13.569Z,97878.35
2022-09-15T11:09:06.253Z,97877.40
2022-09-15T11:12:33.754Z,97871.71
2022-09-15T11:15:28.607Z,97868.58
2022-09-15T11:18:22.046Z,97865.73
2022-09-15T11:21:09.425Z,97860.24
2022-09-15T11:23:44.409Z,97856.92
2022-09-15T11:26:49.180Z,97862.95
2022-09-15T11:29:27.192Z,97863.45
2022-09-15T11:32:05.686Z,97857.52
2022-09-15T11:34:49.547Z,97853.89
2022-09-15T11:37:23.833Z,97853.23
2022-09-15T11:40:09.383Z,97848.92
2022-09-15T11:42:57.429Z,97846.34
2022-09-15T11:45:32.953Z,97848.45
2022-09-15T11:48:16.170Z,97847.19
2022-09-15T11:50:49.287Z,97842.28
2022-09-15T11:53:24.831Z,97837.20
2022-09-15T11:56:19.962Z,97838.70
2022-09-15T11:59:14.600Z,97838.58
2022-09-15T12:02:23.083Z,97834.69
2022-09-15T12:05:42.665Z,97826.10
2022-09-15T12:08:25.963Z,97826.06
2022-09-15T12:10:58.059Z,97830.86
2022-09-15T12:13:27.087Z,97832.55
2022-09-15T12:15:56.446Z,97824.25
2022-09-15T12:18:47.287Z,97821.30
2022-09-15T12:21:30.811Z,97823.88
2022-09-15T12:24:23.687Z,97822.41
2022-09-15T12:26:52.441Z,97816.86
2022-09-15T12:29:26.478Z,97818.61
2022-09-15T12:32:24.869Z,97814.70
2022-09-15T12:35:13.823Z,97814.23
2022-09-15T12:37:46.689Z,97815.39
2022-09-15T12:40:33.963Z,97817.63
2022-09-15T12:43:24.473Z,97812.77
2022-09-15T12:45:57.309Z,97812.56
2022-09-15T12:48:28.266Z,97808.17
2022-09-15T12:51:04.463Z,97803.87
2022-09-15T12:53:38.154Z,97805.49
2022-09-15T12:56:21.113Z,97805.10
2022-09-15T12:58:51.037Z,97808.39
2022-09-15T13:01:19.606Z,97802.38
2022-09-15T13:03:51.126Z,97801.03
2022-09-15T13:06:21.239Z,97799.39
2022-09-15T13:09:02.594Z,97798.05
2022-09-15T13:11:34.965Z,97793.83
2022-09-15T13:14:14.850Z,97798.95
2022-09-15T13:16:54.945Z,97797.35
2022-09-15T13:19:36.187Z,97794.54
2022-09-15T13:22:16.731Z,97797.41
2022-09-15T13:25:01.621Z,97796.44
2022-09-15T13:27:50.587Z,97794.90
2022-09-15T13:30:21.645Z,97796.77
2022-09-15T13:33:03.605Z,97792.41
2022-09-15T13:35:53.086Z,97789.61
2022-09-15T13:38:30.743Z,97789.88
2022-09-15T13:41:09.317Z,97790.19
2022-09-15T13:44:01.817Z,97782.47
2022-09-15T13:47:14.713Z,97784.48
2022-09-15T13:50:22.175Z,97770.04
2022-09-15T13:53:24.285Z,97768.13
2022-09-15T13:55:56.296Z,97768.02
2022-09-15T14:01:21.677Z,97769.83
2022-09-15T14:03:53.733Z,97768.39
2022-09-15T14:06:44.227Z,97771.78
2022-09-15T14:09:21.098Z,97776.42
2022-09-15T14:11:53.664Z,97772.36
2022-09-15T14:14:27.909Z,97778.48
2022-09-15T14:16:57.170Z,97772.96
2022-09-15T14:19:37.950Z,97771.64
2022-09-15T14:22:18.679Z,97764.90
2022-09-15T14:24:47.496Z,97763.11
2022-09-15T14:27:24.639Z,97765.66
2022-09-15T14:29:55.621Z,97763.80
2022-09-15T14:32:26.964Z,97762.46
2022-09-15T14:34:59.994Z,97758.28
2022-09-15T14:37:32.218Z,97763.60
2022-09-15T14:40:03.416Z,97760.60
2022-09-15T14:42:40.959Z,97758.45
2022-09-15T14:48:08.199Z,97748.10
2022-09-15T14:50:38.020Z,97744.86
2022-09-15T14:53:25.529Z,97744.98
2022-09-15T14:56:07.664Z,97750.23
2022-09-15T14:58:53.732Z,97751.72
2022-09-15T15:01:31.083Z,97752.14
2022-09-15T15:04:10.268Z,97749.77
2022-09-15T15:06:53.620Z,97751.43
2022-09-15T15:09:31.594Z,97744.65
2022-09-15T15:12:06.792Z,97744.69
2022-09-15T15:14:36.257Z,97746.93
2022-09-15T15:17:08.628Z,97743.78
2022-09-15T15:19:42.198Z,97742.08
2022-09-15T15:22:13.782Z,97738.95
2022-09-15T15:24:46.266Z,97742.58
2022-09-15T15:27:33.004Z,97740.86
2022-09-15T15:30:26.812Z,97735.91
2022-09-15T15:32:56.478Z,97741.17
2022-09-15T15:35:25.703Z,97737.35
2022-09-15T15:38:17.169Z,97729.08
2022-09-15T15:40:46.955Z,97726.41
2022-09-15T15:43:26.712Z,97725.74
2022-09-15T15:46:04.499Z,97730.86
2022-09-15T15:48:38.152Z,97732.14
2022-09-15T15:51:07.910Z,97737.00
2022-09-15T15:53:36.194Z,97735.76
2022-09-15T15:56:04.528Z,97734.33
2022-09-15T15:58:32.859Z,97731.27
2022-09-15T16:01:01.170Z,97729.52
2022-09-15T16:03:29.431Z,97731.98
2022-09-15T16:06:00.190Z,97727.70
2022-09-15T16:08:38.271Z,97723.75
2022-09-15T16:11:12.058Z,97714.95
2022-09-15T16:13:42.993Z,97714.20
2022-09-15T16:16:15.615Z,97710.91
2022-09-15T16:18:44.596Z,97704.95
2022-09-15T16:21:23.658Z,97702.08
2022-09-15T16:23:51.894Z,97708.17
2022-09-15T16:26:23.623Z,97720.60
2022-09-15T16:28:54.544Z,97726.50
2022-09-15T16:31:25.832Z,97731.71
2022-09-15T16:33:54.183Z,97730.16
2022-09-15T16:36:22.511Z,97723.98
2022-09-15T16:38:50.907Z,97732.80
2022-09-15T16:41:33.057Z,97740.16
2022-09-15T16:44:04.450Z,97738.55
2022-09-15T16:46:32.779Z,97737.70
2022-09-15T16:49:01.026Z,97745.06
2022-09-15T16:51:31.563Z,97750.48
2022-09-15T16:54:00.344Z,97756.19
2022-09-15T16:56:28.777Z,97761.80
2022-09-15T16:59:00.421Z,97758.39
2022-09-15T17:01:29.288Z,97758.02
2022-09-15T17:03:57.834Z,97759.21
2022-09-15T17:06:26.221Z,97757.09
2022-09-15T17:08:55.917Z,97753.65
2022-09-15T17:11:25.583Z,97757.84
2022-09-15T17:13:54.518Z,97767.66
2022-09-15T17:16:22.986Z,97767.02
2022-09-15T17:18:51.342Z,97766.39
2022-09-15T17:21:20.090Z,97761.98
2022-09-15T17:23:50.120Z,97758.65
2022-09-15T17:26:21.757Z,97762.20
2022-09-15T17:28:51.279Z,97762.71
2022-09-15T17:31:22.757Z,97759.31
2022-09-15T17:33:52.186Z,97750.52
2022-09-15T17:36:20.671Z,97749.42
2022-09-15T17:38:49.141Z,97746.59
2022-09-15T17:41:20.570Z,97748.82
2022-09-15T17:43:50.050Z,97755.84
2022-09-15T17:46:18.509Z,97752.05
2022-09-15T17:48:46.819Z,97754.02
2022-09-15T17:51:17.492Z,97761.02
2022-09-15T17:53:47.172Z,97761.85
2022-09-15T17:56:15.604Z,97766.74
2022-09-15T17:58:45.127Z,97764.98
2022-09-15T18:01:15.395Z,97768.40
2022-09-15T18:03:45.165Z,97767.45
2022-09-15T18:06:14.370Z,97775.86
2022-09-15T18:08:42.834Z,97782.77
2022-09-15T18:11:15.853Z,97790.77
2022-09-15T18:13:44.195Z,97795.98
2022-09-15T18:16:14.851Z,97799.57
2022-09-15T18:18:43.513Z,97813.23
2022-09-15T18:21:28.163Z,97818.48
2022-09-15T18:23:56.671Z,97815.67
2022-09-15T18:26:26.656Z,97817.94
2022-09-15T18:28:58.259Z,97813.94
2022-09-15T18:31:27.063Z,97819.34
2022-09-15T18:33:56.078Z,97824.81
2022-09-15T18:36:24.928Z,97824.47
2022-09-15T18:38:53.327Z,97820.06
2022-09-15T18:41:22.111Z,97819.58
2022-09-15T18:43:57.316Z,97816.54
2022-09-15T18:46:30.015Z,97818.58
2022-09-15T18:48:58.886Z,97819.12
2022-09-15T18:51:40.871Z,97825.14
2022-09-15T18:54:15.384Z,97821.77
2022-09-15T18:56:43.644Z,97819.58
2022-09-15T18:59:15.523Z,97823.59
2022-09-15T19:01:48.839Z,97822.48
2022-09-15T19:04:19.085Z,97823.46
2022-09-15T19:06:54.159Z,97829.07
2022-09-15T19:09:23.703Z,97827.80
2022-09-15T19:11:52.067Z,97826.72
2022-09-15T19:14:20.603Z,97832.10
2022-09-15T19:16:57.480Z,97836.15
2022-09-15T19:19:28.347Z,97829.59
2022-09-15T19:22:14.002Z,97827.71
2022-09-15T19:24:46.281Z,97839.71
2022-09-15T19:27:14.837Z,97838.31
2022-09-15T19:30:04.331Z,97832.18
2022-09-15T19:32:34.154Z,97829.51
2022-09-15T19:35:02.599Z,97831.58
2022-09-15T19:37:34.095Z,97829.60
2022-09-15T19:40:07.794Z,97826.11
2022-09-15T19:42:38.435Z,97832.52
2022-09-15T19:45:09.991Z,97833.75
2022-09-15T19:47:39.497Z,97836.79
2022-09-15T19:50:10.073Z,97848.03
2022-09-15T19:52:38.541Z,97856.52
2022-09-15T19:55:09.836Z,97857.00
2022-09-15T19:57:40.194Z,97859.77
2022-09-15T20:00:37.123Z,97864.97
2022-09-15T20:03:08.751Z,97871.02
2022-09-15T20:05:39.805Z,97872.38
2022-09-15T20:08:08.115Z,97870.85
2022-09-15T20:17:20.032Z,97868.23
2022-09-15T20:19:48.454Z,97865.10
2022-09-15T20:22:16.670Z,97867.33
2022-09-15T20:24:44.863Z,97868.46
2022-09-15T20:27:13.168Z,97867.56
2022-09-15T20:29:41.662Z,97864.38
2022-09-15T20:32:09.912Z,97868.73
2022-09-15T20:34:38.196Z,97868.98
2022-09-15T20:37:07.221Z,97868.55
2022-09-15T20:39:36.045Z,97873.07
2022-09-15T20:42:04.367Z,97877.53
2022-09-15T20:44:32.614Z,97879.10
2022-09-15T20:47:00.846Z,97887.06
2022-09-15T20:49:29.098Z,97893.80
2022-09-15T20:51:57.339Z,97892.63
2022-09-15T20:54:25.624Z,97889.20
2022-09-15T20:56:54.343Z,97886.09
2022-09-15T20:59:22.533Z,97887.65
2022-09-15T21:01:50.742Z,97888.77
2022-09-15T21:04:20.103Z,97894.89
2022-09-15T21:06:48.491Z,97899.39
2022-09-15T21:12:34.251Z,97909.33
2022-09-15T21:15:03.726Z,97922.31
2022-09-15T21:17:52.445Z,97923.80
2022-09-15T21:20:21.436Z,97925.13
2022-09-15T21:22:57.320Z,97932.45
2022-09-15T21:25:27.762Z,97932.98
2022-09-15T21:27:56.411Z,97933.95
2022-09-15T21:30:24.755Z,97946.23
2022-09-15T21:32:54.136Z,97948.17
2022-09-15T21:35:23.343Z,97956.74
2022-09-15T21:37:52.001Z,97960.07
2022-09-15T21:40:20.288Z,97955.64
2022-09-15T21:42:48.554Z,97957.52
2022-09-15T21:45:16.811Z,97956.72
2022-09-15T21:47:45.059Z,97953.08
2022-09-15T21:50:14.460Z,97950.98
2022-09-15T21:52:42.785Z,97951.20
2022-09-15T21:55:11.164Z,97948.30
2022-09-15T21:57:39.485Z,97949.27
2022-09-15T22:00:08.963Z,97952.69
2022-09-15T22:02:37.296Z,97959.08
2022-09-15T22:05:06.462Z,97967.77
2022-09-15T22:07:35.755Z,97973.21
2022-09-15T22:10:04.427Z,97975.73
2022-09-15T22:12:32.708Z,97982.17
2022-09-15T22:15:00.888Z,97979.89
2022-09-15T22:17:29.326Z,97985.64
2022-09-15T22:19:57.552Z,97991.80
2022-09-15T22:22:25.878Z,98002.90
2022-09-15T22:24:54.171Z,97999.95
2022-09-15T22:27:22.496Z,98001.98
2022-09-15T22:29:50.810Z,98001.53
2022-09-15T22:32:19.063Z,98003.45
2022-09-15T22:34:48.102Z,98006.77
2022-09-15T22:37:16.294Z,98005.33
2022-09-15T22:39:58.408Z,98006.35
2022-09-15T22:42:27.965Z,98006.55
2022-09-15T22:44:56.261Z,98011.36
2022-09-15T22:47:24.644Z,98010.04
2022-09-15T22:49:52.872Z,98010.48
2022-09-15T22:52:21.493Z,98012.58
2022-09-15T22:54:49.831Z,98016.42
2022-09-15T22:57:18.053Z,98017.56
2022-09-15T22:59:46.352Z,98015.84
2022-09-15T23:02:14.588Z,98023.02
2022-09-15T23:04:42.737Z,98029.05
2022-09-15T23:07:10.912Z,98032.20
2022-09-15T23:09:39.270Z,98035.27
2022-09-15T23:12:09.194Z,98038.23
2022-09-15T23:14:37.457Z,98038.98
2022-09-15T23:17:05.748Z,98036.56
2022-09-15T23:19:34.051Z,98036.05
2022-09-15T23:22:02.320Z,98039.15
2022-09-15T23:24:31.404Z,98043.70
2022-09-15T23:26:59.643Z,98042.69
2022-09-15T23:29:27.937Z,98042.96
2022-09-15T23:31:56.535Z,98041.86
2022-09-15T23:34:24.964Z,98049.55
2022-09-15T23:36:53.269Z,98046.45
2022-09-15T23:39:21.551Z,98040.42
2022-09-15T23:41:49.777Z,98040.21
2022-09-15T23:44:18.561Z,98041.79
2022-09-15T23:46:46.973Z,98039.21
2022-09-15T23:49:18.559Z,98037.17
2022-09-15T23:51:47.286Z,98033.48
2022-09-15T23:54:15.615Z,98032.30
2022-09-15T23:56:43.839Z,98034.05
2022-09-15T23:59:12.130Z,98038.77
